Time;durP1;ratioP1;P1;durP2;ratioP2;P2;SDS_P1;SDS_P2;PMS_P1;PMS_P2;Temp;Humidity;BMP_temperature;BMP_pressure;BME280_temperature;BME280_humidity;BME280_pressure;Samples;Min_cycle;Max_cycle;Signal;HPM_P1;HPM_P2
2021/12/07 00:02:10;;;;;;;23.33;10.73;;;1.80;99.90;;;;;;5071564;28;20223;-78
2021/12/07 00:04:39;;;;;;;20.30;9.90;;;1.80;99.90;;;;;;5076461;28;20210;-77
2021/12/07 00:07:07;;;;;;;16.77;9.47;;;1.80;99.90;;;;;;5090583;28;20628;-76
2021/12/07 00:09:35;;;;;;;22.87;9.83;;;1.80;99.90;;;;;;5090505;28;20264;-77
2021/12/07 00:12:06;;;;;;;20.10;9.97;;;1.80;99.90;;;;;;5065145;28;20224;-76
2021/12/07 00:14:38;;;;;;;18.97;9.60;;;1.80;99.90;;;;;;5088862;28;20303;-76
2021/12/07 00:17:05;;;;;;;20.63;9.47;;;1.80;99.90;;;;;;5070212;28;20247;-76
2021/12/07 00:19:34;;;;;;;19.13;9.93;;;1.80;99.90;;;;;;5052217;28;20668;-75
2021/12/07 00:22:03;;;;;;;19.87;9.43;;;1.80;99.90;;;;;;5069860;28;20631;-76
2021/12/07 00:24:30;;;;;;;18.23;8.87;;;1.80;99.90;;;;;;5069993;28;20216;-76
2021/12/07 00:26:58;;;;;;;21.47;9.23;;;1.80;99.90;;;;;;5070165;28;20573;-75
2021/12/07 00:29:25;;;;;;;16.60;9.00;;;1.80;99.90;;;;;;5069774;28;20250;-76
2021/12/07 00:32:06;;;;;;;20.53;10.00;;;1.90;99.90;;;;;;5070480;28;20278;-77
2021/12/07 00:37:01;;;;;;;14.63;7.90;;;1.90;99.90;;;;;;5072027;28;20205;-77
2021/12/07 00:39:28;;;;;;;14.67;8.10;;;1.90;99.90;;;;;;5063366;28;20238;-76
2021/12/07 00:41:58;;;;;;;17.37;9.17;;;1.90;99.90;;;;;;5069724;28;20745;-76
2021/12/07 00:44:26;;;;;;;15.10;7.83;;;2.00;99.90;;;;;;5072719;28;20345;-77
2021/12/07 00:46:53;;;;;;;16.57;7.63;;;2.00;99.90;;;;;;5049742;28;20301;-75
2021/12/07 00:49:21;;;;;;;15.53;8.47;;;2.00;99.90;;;;;;5049726;28;20272;-76
2021/12/07 00:51:48;;;;;;;13.30;7.33;;;2.00;99.90;;;;;;5071052;28;20343;-77
2021/12/07 00:54:16;;;;;;;12.73;7.53;;;1.90;99.90;;;;;;5078002;28;20207;-76
2021/12/07 00:56:43;;;;;;;13.37;7.40;;;1.90;99.90;;;;;;5089323;28;20259;-76
2021/12/07 00:59:10;;;;;;;13.90;7.53;;;2.00;99.90;;;;;;5081581;28;20710;-75
2021/12/07 01:01:36;;;;;;;13.53;6.97;;;2.00;99.90;;;;;;5069925;28;20200;-76
2021/12/07 01:04:07;;;;;;;12.67;7.20;;;2.00;99.90;;;;;;5069468;28;20249;-76
2021/12/07 01:09:36;;;;;;;12.60;6.60;;;2.00;99.90;;;;;;5070241;28;20331;-75
2021/12/07 01:25:59;;;;;;;10.03;6.10;;;2.20;99.90;;;;;;5069523;28;20259;-77
2021/12/07 01:28:38;;;;;;;12.53;6.87;;;2.20;99.90;;;;;;5070007;28;20213;-77
2021/12/07 01:31:17;;;;;;;13.03;7.23;;;2.20;99.90;;;;;;5084629;28;20303;-76
2021/12/07 01:36:50;;;;;;;14.37;8.17;;;2.10;99.90;;;;;;5076224;28;20195;-76
2021/12/07 01:45:12;;;;;;;21.17;10.60;;;2.20;99.90;;;;;;5083439;28;20234;-77
2021/12/07 01:53:17;;;;;;;34.30;11.60;;;2.20;99.90;;;;;;5062298;28;20799;-79
2021/12/07 02:01:06;;;;;;;20.33;11.13;;;2.30;99.90;;;;;;5081930;28;20208;-79
2021/12/07 02:03:34;;;;;;;22.47;11.60;;;2.30;99.90;;;;;;5081302;28;20212;-78
2021/12/07 02:06:02;;;;;;;26.97;12.03;;;2.20;99.90;;;;;;5076770;28;20210;-79
2021/12/07 02:08:30;;;;;;;22.50;11.80;;;2.10;99.90;;;;;;5078174;28;20218;-79
2021/12/07 02:11:01;;;;;;;25.80;13.23;;;2.10;99.90;;;;;;5084872;28;20236;-78
2021/12/07 02:15:59;;;;;;;27.93;13.33;;;2.10;99.90;;;;;;5073080;28;20236;-79
2021/12/07 02:18:26;;;;;;;27.13;13.73;;;2.10;99.90;;;;;;5089918;28;20556;-80
2021/12/07 02:20:53;;;;;;;25.17;12.67;;;2.00;99.90;;;;;;5089116;28;20287;-79
2021/12/07 02:23:20;;;;;;;31.20;14.10;;;2.00;99.90;;;;;;5060855;28;20248;-79
2021/12/07 02:25:47;;;;;;;26.67;13.70;;;2.00;99.90;;;;;;5068892;28;20224;-79
2021/12/07 02:28:14;;;;;;;24.80;12.33;;;2.00;99.90;;;;;;5069200;28;20268;-79
2021/12/07 02:30:44;;;;;;;29.43;13.97;;;2.00;99.90;;;;;;5069385;28;20274;-79
2021/12/07 02:33:13;;;;;;;31.83;14.63;;;2.00;99.90;;;;;;5069098;28;20227;-79
2021/12/07 02:35:41;;;;;;;33.13;14.27;;;2.00;99.90;;;;;;5051415;28;20208;-78
2021/12/07 02:38:07;;;;;;;31.50;15.03;;;2.00;99.90;;;;;;5069173;28;20219;-79
2021/12/07 02:40:35;;;;;;;31.10;15.57;;;1.90;99.90;;;;;;5084499;28;20208;-79
2021/12/07 02:43:02;;;;;;;30.60;14.43;;;2.00;99.90;;;;;;5079327;28;20256;-81
2021/12/07 02:45:30;;;;;;;37.50;15.43;;;2.00;99.90;;;;;;5079036;28;20210;-80
2021/12/07 02:47:57;;;;;;;32.03;15.00;;;2.00;99.90;;;;;;5091779;28;20221;-79
2021/12/07 02:50:26;;;;;;;35.00;16.17;;;2.00;99.90;;;;;;5094365;28;20289;-78
2021/12/07 02:52:53;;;;;;;35.87;16.77;;;2.00;99.90;;;;;;5084455;28;20261;-80
2021/12/07 02:55:20;;;;;;;34.40;15.07;;;2.00;99.90;;;;;;5090403;28;20200;-79
2021/12/07 02:57:48;;;;;;;35.13;16.03;;;2.00;99.90;;;;;;5061742;28;20210;-79
2021/12/07 03:00:20;;;;;;;36.20;16.77;;;2.00;99.90;;;;;;5061137;28;20706;-80
2021/12/07 03:03:03;;;;;;;37.80;16.50;;;1.90;99.90;;;;;;5076967;28;20215;-80
2021/12/07 03:27:55;;;;;;;42.23;18.63;;;1.90;99.90;;;;;;5073509;28;20306;-78
2021/12/07 03:30:22;;;;;;;42.77;18.27;;;1.90;99.90;;;;;;5062172;28;20378;-80
2021/12/07 03:32:50;;;;;;;38.43;17.43;;;1.90;99.90;;;;;;5073221;28;20278;-79
2021/12/07 03:35:17;;;;;;;44.87;18.63;;;1.90;99.90;;;;;;5075090;28;20596;-79
2021/12/07 03:37:45;;;;;;;50.63;18.77;;;2.00;99.90;;;;;;5093108;28;20698;-79
2021/12/07 03:40:14;;;;;;;39.67;18.40;;;2.00;99.90;;;;;;5088747;28;20244;-79
2021/12/07 03:42:40;;;;;;;45.80;18.37;;;2.10;99.90;;;;;;5075704;28;20762;-80
2021/12/07 03:45:09;;;;;;;44.20;17.80;;;2.10;99.90;;;;;;5085442;28;20550;-81
2021/12/07 03:47:36;;;;;;;38.43;17.50;;;2.10;99.90;;;;;;5074285;28;20694;-79
2021/12/07 03:50:05;;;;;;;46.03;18.27;;;2.10;99.90;;;;;;5073642;28;20228;-80
2021/12/07 03:52:32;;;;;;;45.17;17.63;;;2.10;99.90;;;;;;5079225;28;21229;-78
2021/12/07 03:54:59;;;;;;;43.30;18.27;;;2.10;99.90;;;;;;5090060;28;20222;-80
2021/12/07 03:57:26;;;;;;;47.10;18.60;;;2.00;99.90;;;;;;5085641;28;20588;-78
2021/12/07 03:59:53;;;;;;;44.83;17.23;;;2.00;99.90;;;;;;5078487;28;20212;-79
2021/12/07 04:02:19;;;;;;;40.13;17.30;;;2.00;99.90;;;;;;5071553;28;20759;-80
2021/12/07 04:04:48;;;;;;;40.93;18.20;;;2.00;99.90;;;;;;5069325;28;20268;-79
2021/12/07 04:07:15;;;;;;;47.20;19.13;;;2.00;99.90;;;;;;5071250;28;20955;-80
2021/12/07 04:09:42;;;;;;;47.33;20.20;;;1.90;99.90;;;;;;5075357;28;20201;-81
2021/12/07 04:12:09;;;;;;;43.73;18.00;;;1.90;99.90;;;;;;5068639;28;20826;-81
2021/12/07 04:14:35;;;;;;;44.23;18.20;;;1.90;99.90;;;;;;5071012;28;20231;-79
2021/12/07 04:17:02;;;;;;;55.20;19.83;;;1.90;99.90;;;;;;5071740;28;20200;-81
2021/12/07 04:19:29;;;;;;;58.77;19.90;;;1.90;99.90;;;;;;5071079;28;20210;-80
2021/12/07 04:21:56;;;;;;;61.47;21.00;;;1.80;99.90;;;;;;5052944;28;20292;-80
2021/12/07 04:24:27;;;;;;;47.47;18.17;;;1.90;99.90;;;;;;5067249;28;20304;-79
2021/12/07 04:26:55;;;;;;;45.57;17.93;;;1.90;99.90;;;;;;5090009;28;20640;-79
2021/12/07 04:29:21;;;;;;;37.37;16.30;;;1.90;99.90;;;;;;5057800;28;20710;-80
2021/12/07 04:31:48;;;;;;;46.33;17.97;;;1.90;99.90;;;;;;5071376;28;20316;-79
2021/12/07 04:34:15;;;;;;;46.83;18.40;;;1.90;99.90;;;;;;5070874;28;20239;-80
2021/12/07 04:36:42;;;;;;;44.50;17.33;;;1.90;99.90;;;;;;5070730;28;20249;-80
2021/12/07 04:39:13;;;;;;;50.77;21.90;;;1.90;99.90;;;;;;5071146;28;20208;-79
2021/12/07 04:41:42;;;;;;;53.27;18.57;;;1.90;99.90;;;;;;5070528;28;20258;-81
2021/12/07 04:44:09;;;;;;;46.67;17.77;;;1.90;99.90;;;;;;5070261;28;20747;-80
2021/12/07 04:46:47;;;;;;;50.87;17.30;;;1.90;99.90;;;;;;5070633;28;20573;-79
2021/12/07 04:49:49;;;;;;;52.30;18.20;;;1.90;99.90;;;;;;5070012;28;20315;-79
2021/12/07 05:00:32;;;;;;;40.43;14.63;;;2.00;99.90;;;;;;5075960;28;20205;-78
2021/12/07 05:03:03;;;;;;;46.53;16.40;;;2.00;99.90;;;;;;5052494;28;20231;-81
2021/12/07 05:05:36;;;;;;;42.60;15.13;;;2.10;99.90;;;;;;5052273;28;20612;-79
2021/12/07 05:08:10;;;;;;;44.93;15.00;;;2.10;99.90;;;;;;5073822;28;20319;-79
2021/12/07 05:11:12;;;;;;;42.73;14.47;;;2.20;99.90;;;;;;5083574;28;20239;-79
2021/12/07 05:13:30;;;;;;;35.93;12.60;;;2.20;99.90;;;;;;5080286;28;20296;-79
2021/12/07 05:16:09;;;;;;;38.40;14.47;;;2.20;99.90;;;;;;5089742;28;20203;-80
2021/12/07 05:23:52;;;;;;;35.83;12.23;;;2.20;99.90;;;;;;5074393;28;20219;-79
2021/12/07 05:24:21;;;;;;;33.30;12.43;;;2.10;99.90;;;;;;5089877;28;20204;-79
2021/12/07 05:40:20;;;;;;;29.50;11.80;;;2.20;99.90;;;;;;5067398;28;20286;-79
2021/12/07 05:42:48;;;;;;;33.93;12.43;;;2.20;99.90;;;;;;5068851;28;20596;-80
2021/12/07 05:45:21;;;;;;;36.20;10.70;;;2.20;99.90;;;;;;5071157;28;20291;-80
2021/12/07 05:47:48;;;;;;;29.27;11.20;;;2.20;99.90;;;;;;5050333;28;20231;-80
2021/12/07 05:50:20;;;;;;;32.93;10.63;;;2.20;99.90;;;;;;5071188;28;20235;-80
2021/12/07 05:52:47;;;;;;;24.87;9.60;;;2.30;99.90;;;;;;5088689;28;20286;-79
2021/12/07 05:55:27;;;;;;;38.17;11.18;;;2.30;99.90;;;;;;5089025;27;1206651;-80
2021/12/07 05:57:56;;;;;;;31.50;10.17;;;2.30;99.90;;;;;;5107698;28;20315;-80
2021/12/07 06:00:28;;;;;;;35.97;10.13;;;2.30;99.90;;;;;;5101767;28;20630;-80
2021/12/07 06:02:59;;;;;;;25.57;9.17;;;2.30;99.90;;;;;;5076054;28;20215;-82
2021/12/07 06:05:28;;;;;;;33.30;9.70;;;2.30;99.90;;;;;;5099840;28;20206;-81
2021/12/07 06:07:55;;;;;;;26.07;8.87;;;2.40;99.90;;;;;;5069055;28;20207;-80
2021/12/07 06:10:23;;;;;;;28.13;9.73;;;2.50;99.90;;;;;;5106444;28;20739;-80
2021/12/07 06:12:52;;;;;;;24.13;8.30;;;2.50;99.90;;;;;;5088027;28;20208;-81
2021/12/07 06:15:22;;;;;;;23.97;8.60;;;2.50;99.90;;;;;;5106120;28;20224;-81
2021/12/07 06:17:50;;;;;;;27.93;9.27;;;2.50;99.90;;;;;;5088706;28;20300;-81
2021/12/07 06:20:18;;;;;;;28.07;9.43;;;2.50;99.90;;;;;;5107601;28;20299;-80
2021/12/07 06:23:05;;;;;;;28.43;10.37;;;2.50;99.90;;;;;;5106284;28;20209;-80
2021/12/07 06:25:32;;;;;;;22.00;10.30;;;2.50;99.90;;;;;;5106411;28;20273;-80
2021/12/07 06:27:59;;;;;;;28.83;9.20;;;2.50;99.90;;;;;;5087320;28;20214;-80
2021/12/07 06:30:26;;;;;;;18.80;8.67;;;2.40;99.90;;;;;;5106014;28;20207;-82
2021/12/07 06:32:53;;;;;;;31.93;8.37;;;2.40;99.90;;;;;;5106643;28;20212;-80
2021/12/07 06:35:20;;;;;;;29.40;8.33;;;2.40;99.90;;;;;;5100709;28;20226;-80
2021/12/07 06:37:47;;;;;;;16.63;7.50;;;2.40;99.90;;;;;;5105719;28;20716;-80
2021/12/07 06:40:19;;;;;;;24.50;8.00;;;2.40;99.90;;;;;;5106367;28;20208;-79
2021/12/07 06:42:46;;;;;;;30.03;8.33;;;2.40;99.90;;;;;;5106698;28;20292;-80
2021/12/07 06:45:13;;;;;;;26.30;7.43;;;2.40;99.90;;;;;;5088184;28;20207;-82
2021/12/07 06:47:40;;;;;;;28.30;7.40;;;2.40;99.90;;;;;;5088069;28;20219;-86
2021/12/07 06:50:10;;;;;;;30.98;10.10;;;2.40;99.90;;;;;;5084148;28;21016;-80
2021/12/07 06:52:37;;;;;;;21.73;7.90;;;2.50;99.90;;;;;;5099147;28;20201;-80
2021/12/07 06:55:05;;;;;;;30.57;6.87;;;2.50;99.90;;;;;;5105862;28;20351;-81
2021/12/07 06:57:32;;;;;;;31.47;7.43;;;2.50;99.90;;;;;;5105172;28;20232;-79
2021/12/07 06:59:59;;;;;;;22.00;7.93;;;2.60;99.90;;;;;;5105301;28;21093;-80
2021/12/07 07:02:31;;;;;;;19.47;6.80;;;2.60;99.90;;;;;;5096284;28;20263;-82
2021/12/07 07:04:58;;;;;;;23.63;7.27;;;2.60;99.90;;;;;;5072827;28;20326;-80
2021/12/07 07:07:25;;;;;;;18.27;7.40;;;2.60;99.90;;;;;;5093566;28;20236;-80
2021/12/07 07:09:52;;;;;;;18.63;6.60;;;2.60;99.90;;;;;;5092277;28;20227;-79
2021/12/07 07:12:19;;;;;;;21.67;7.17;;;2.60;99.90;;;;;;5088730;28;20256;-79
2021/12/07 07:14:46;;;;;;;19.03;6.97;;;2.60;99.90;;;;;;5087098;28;20432;-78
2021/12/07 07:17:13;;;;;;;24.50;7.87;;;2.60;99.90;;;;;;5089196;28;20224;-78
2021/12/07 07:19:43;;;;;;;26.10;7.13;;;2.50;99.90;;;;;;5091480;28;20227;-80
2021/12/07 07:22:10;;;;;;;28.90;7.97;;;2.50;99.90;;;;;;5087393;28;20604;-77
2021/12/07 07:24:37;;;;;;;25.70;8.27;;;2.50;99.90;;;;;;5091442;28;20670;-79
2021/12/07 07:27:05;;;;;;;27.47;8.07;;;2.50;99.90;;;;;;5091031;28;20709;-80
2021/12/07 07:29:32;;;;;;;27.97;8.27;;;2.50;99.90;;;;;;5091642;28;20280;-79
2021/12/07 07:31:59;;;;;;;17.07;7.93;;;2.50;99.90;;;;;;5088184;28;20205;-78
2021/12/07 07:34:26;;;;;;;28.27;9.20;;;2.40;99.90;;;;;;5090285;28;20673;-76
2021/12/07 07:36:53;;;;;;;20.80;8.20;;;2.30;99.90;;;;;;5088973;28;20652;-77
2021/12/07 07:39:21;;;;;;;20.47;7.93;;;2.40;99.90;;;;;;5073037;28;20244;-76
2021/12/07 07:41:48;;;;;;;29.37;9.83;;;2.40;99.90;;;;;;5090691;28;20680;-77
2021/12/07 07:44:15;;;;;;;33.63;10.47;;;2.40;99.90;;;;;;5090904;28;20249;-77
2021/12/07 07:46:42;;;;;;;40.20;10.43;;;2.40;99.90;;;;;;5090679;28;20220;-79
2021/12/07 07:49:09;;;;;;;35.90;10.87;;;2.40;99.90;;;;;;5089596;28;20220;-79
2021/12/07 07:51:37;;;;;;;28.40;10.07;;;2.40;99.90;;;;;;5083247;28;20197;-77
2021/12/07 07:54:04;;;;;;;24.80;9.17;;;2.40;99.90;;;;;;5069998;28;20315;-78
2021/12/07 07:56:32;;;;;;;26.33;10.03;;;2.40;99.90;;;;;;5071965;28;20303;-78
2021/12/07 07:59:00;;;;;;;32.57;9.57;;;2.40;99.90;;;;;;5088783;28;20984;-78
2021/12/07 08:01:30;;;;;;;38.20;10.57;;;2.40;99.90;;;;;;5090912;28;20208;-78
2021/12/07 08:04:00;;;;;;;25.77;9.83;;;2.50;99.90;;;;;;5080686;28;20240;-79
2021/12/07 08:06:27;;;;;;;31.43;10.17;;;2.50;99.90;;;;;;5091073;28;20748;-79
2021/12/07 08:08:55;;;;;;;25.77;9.17;;;2.50;99.90;;;;;;5090090;28;20276;-79
2021/12/07 08:11:24;;;;;;;29.67;10.03;;;2.50;99.90;;;;;;5089834;28;20200;-79
2021/12/07 08:13:55;;;;;;;33.10;9.60;;;2.50;99.90;;;;;;5086232;28;20212;-78
2021/12/07 08:16:22;;;;;;;37.40;9.63;;;2.50;99.90;;;;;;5086967;28;20306;-79
2021/12/07 08:18:50;;;;;;;28.37;9.57;;;2.50;99.90;;;;;;5081014;28;20244;-79
2021/12/07 08:21:18;;;;;;;24.27;10.23;;;2.50;99.90;;;;;;5082563;28;20220;-77
2021/12/07 08:23:46;;;;;;;32.40;10.73;;;2.50;99.90;;;;;;5084816;28;20538;-79
2021/12/07 08:26:16;;;;;;;26.53;8.87;;;2.50;99.90;;;;;;5090163;28;20208;-78
2021/12/07 08:28:52;;;;;;;36.13;10.20;;;2.60;99.90;;;;;;5087463;28;20200;-77
2021/12/07 08:31:19;;;;;;;27.33;9.50;;;2.60;99.90;;;;;;5089560;28;20299;-78
2021/12/07 08:33:46;;;;;;;31.90;10.03;;;2.60;99.90;;;;;;5089610;28;20685;-78
2021/12/07 08:36:13;;;;;;;31.00;11.13;;;2.60;99.90;;;;;;5090526;28;20279;-77
2021/12/07 08:38:41;;;;;;;35.90;11.10;;;2.70;99.90;;;;;;5089496;28;20279;-76
2021/12/07 08:41:08;;;;;;;39.07;11.30;;;2.70;99.90;;;;;;5089795;28;20226;-79
2021/12/07 08:43:41;;;;;;;40.80;11.50;;;2.80;99.90;;;;;;5092326;28;20264;-78
2021/12/07 08:46:10;;;;;;;39.03;11.90;;;2.80;99.90;;;;;;5068075;28;20262;-78
2021/12/07 08:48:37;;;;;;;29.47;12.03;;;2.80;99.90;;;;;;5084859;28;20205;-79
2021/12/07 08:51:06;;;;;;;36.77;11.83;;;2.90;99.90;;;;;;5089135;28;20208;-78
2021/12/07 08:53:36;;;;;;;33.63;12.20;;;2.90;99.90;;;;;;5071670;28;20201;-78
2021/12/07 09:01:37;;;;;;;36.47;11.67;;;3.00;99.90;;;;;;5088815;28;20200;-76
2021/12/07 09:04:07;;;;;;;32.70;11.70;;;3.10;99.90;;;;;;5080250;28;20322;-77
2021/12/07 09:06:34;;;;;;;33.87;13.23;;;3.10;99.90;;;;;;5089209;28;20209;-76
2021/12/07 09:09:01;;;;;;;37.07;12.80;;;3.10;99.90;;;;;;5071222;28;20316;-79
2021/12/07 09:11:29;;;;;;;31.77;12.27;;;3.10;99.90;;;;;;5079472;28;20646;-77
2021/12/07 09:13:56;;;;;;;36.83;13.13;;;3.20;99.90;;;;;;5069139;28;20263;-76
2021/12/07 09:16:23;;;;;;;41.40;13.10;;;3.20;99.90;;;;;;5061426;28;20343;-77
2021/12/07 09:18:50;;;;;;;35.93;12.43;;;3.20;99.90;;;;;;5089329;28;20248;-77
2021/12/07 09:21:18;;;;;;;27.20;11.90;;;3.20;99.90;;;;;;5086333;28;20224;-76
2021/12/07 09:23:45;;;;;;;31.40;12.70;;;3.30;99.90;;;;;;5082302;28;20669;-76
2021/12/07 09:26:12;;;;;;;40.30;13.70;;;3.30;99.90;;;;;;5081535;28;20789;-76
2021/12/07 09:28:40;;;;;;;38.27;12.63;;;3.30;99.90;;;;;;5083393;28;20293;-77
2021/12/07 09:31:09;;;;;;;31.37;12.63;;;3.30;99.90;;;;;;5068458;28;20288;-78
2021/12/07 09:33:36;;;;;;;32.47;12.67;;;3.30;99.90;;;;;;5071121;28;20207;-76
2021/12/07 09:36:07;;;;;;;31.40;11.90;;;3.30;99.90;;;;;;5075382;28;20268;-77
2021/12/07 09:38:35;;;;;;;27.03;12.40;;;3.40;99.90;;;;;;5085638;28;20267;-74
2021/12/07 09:41:05;;;;;;;31.83;12.43;;;3.40;99.90;;;;;;5085400;28;20206;-78
2021/12/07 09:43:32;;;;;;;34.17;11.33;;;3.40;99.90;;;;;;5063911;28;20259;-78
2021/12/07 09:46:00;;;;;;;26.57;12.00;;;3.40;99.90;;;;;;5088848;28;20266;-77
2021/12/07 09:48:28;;;;;;;33.50;12.47;;;3.50;99.90;;;;;;5088862;28;20241;-77
2021/12/07 09:50:56;;;;;;;31.47;13.20;;;3.50;99.90;;;;;;5089672;28;20217;-77
2021/12/07 09:53:24;;;;;;;32.40;12.57;;;3.50;99.90;;;;;;5087352;28;20275;-76
2021/12/07 09:55:58;;;;;;;38.10;13.33;;;3.50;99.90;;;;;;5087109;28;20234;-78
2021/12/07 09:58:26;;;;;;;29.67;12.37;;;3.50;99.90;;;;;;5088567;28;20201;-77
2021/12/07 10:00:54;;;;;;;33.70;12.63;;;3.60;99.90;;;;;;5069222;28;20279;-77
2021/12/07 10:03:23;;;;;;;36.33;12.33;;;3.60;99.90;;;;;;5081012;28;20320;-77
2021/12/07 10:05:52;;;;;;;28.80;13.47;;;3.60;99.90;;;;;;5088134;28;20675;-76
2021/12/07 10:08:19;;;;;;;28.83;12.23;;;3.60;99.90;;;;;;5085912;28;20214;-78
2021/12/07 10:10:51;;;;;;;29.40;14.47;;;3.60;99.90;;;;;;5085037;28;20214;-77
2021/12/07 10:13:21;;;;;;;39.13;15.13;;;3.60;99.90;;;;;;5070674;28;20234;-78
2021/12/07 10:15:49;;;;;;;34.93;17.07;;;3.70;99.90;;;;;;5090236;28;20221;-78
2021/12/07 10:18:19;;;;;;;50.23;18.67;;;3.70;99.90;;;;;;5097929;28;20231;-77
2021/12/07 10:21:13;;;;;;;42.20;18.03;;;3.70;99.90;;;;;;5073479;28;20276;-79
2021/12/07 10:23:44;;;;;;;42.97;18.63;;;3.70;99.90;;;;;;5083398;28;20226;-76
2021/12/07 10:26:19;;;;;;;46.87;21.60;;;3.70;99.90;;;;;;5082841;28;20283;-78
2021/12/07 10:28:55;;;;;;;53.33;21.77;;;3.60;99.90;;;;;;5087207;28;20198;-79
2021/12/07 10:31:27;;;;;;;52.37;22.30;;;3.70;99.90;;;;;;5089486;28;20744;-79
2021/12/07 10:34:01;;;;;;;49.20;22.77;;;3.70;99.90;;;;;;5083033;28;20214;-77
2021/12/07 10:36:30;;;;;;;49.57;19.10;;;3.70;99.90;;;;;;5094453;28;20319;-78
2021/12/07 10:39:12;;;;;;;46.37;21.67;;;3.80;99.90;;;;;;5100713;28;20207;-78
2021/12/07 10:41:49;;;;;;;53.80;23.80;;;3.80;99.90;;;;;;5096286;28;20202;-79
2021/12/07 10:44:37;;;;;;;59.17;23.07;;;3.80;99.90;;;;;;5079776;28;20204;-76
2021/12/07 10:47:08;;;;;;;54.23;23.30;;;3.80;99.90;;;;;;5068536;28;20209;-79
2021/12/07 10:49:43;;;;;;;58.90;25.97;;;3.80;99.90;;;;;;5082124;28;20650;-78
2021/12/07 10:52:35;;;;;;;48.33;24.30;;;3.80;99.90;;;;;;5080950;28;20206;-77
2021/12/07 10:55:16;;;;;;;62.30;24.20;;;3.80;99.90;;;;;;5105289;28;20241;-77
2021/12/07 10:57:54;;;;;;;54.70;23.63;;;3.80;99.90;;;;;;5106854;28;20210;-77
2021/12/07 11:00:33;;;;;;;58.83;23.87;;;3.80;99.90;;;;;;5104377;28;20241;-79
2021/12/07 11:03:18;;;;;;;61.63;24.13;;;3.80;99.90;;;;;;5087976;28;20511;-80
2021/12/07 11:05:54;;;;;;;59.77;26.27;;;3.90;99.90;;;;;;5078858;28;20206;-80
2021/12/07 11:08:26;;;;;;;57.23;24.57;;;3.90;99.90;;;;;;5087668;28;20723;-78
2021/12/07 11:10:55;;;;;;;56.90;25.17;;;3.90;99.90;;;;;;5090116;28;20222;-79
2021/12/07 11:13:26;;;;;;;57.07;23.93;;;4.00;99.90;;;;;;5092071;28;20568;-79
2021/12/07 11:15:57;;;;;;;56.13;24.57;;;4.00;99.90;;;;;;5092303;28;20329;-79
2021/12/07 11:18:27;;;;;;;64.83;24.80;;;4.10;99.90;;;;;;5073217;28;21353;-80
2021/12/07 11:21:06;;;;;;;58.73;22.70;;;4.00;99.90;;;;;;5084088;28;20203;-82
2021/12/07 11:23:39;;;;;;;48.80;23.93;;;4.10;99.90;;;;;;5092022;28;20294;-80
2021/12/07 11:31:50;;;;;;;48.60;20.20;;;4.20;99.90;;;;;;5075553;28;20196;-80
2021/12/07 11:34:22;;;;;;;43.97;21.43;;;4.20;99.90;;;;;;5071200;28;20311;-81
2021/12/07 11:36:53;;;;;;;51.83;21.67;;;4.20;99.90;;;;;;5089168;28;20226;-80
2021/12/07 11:39:29;;;;;;;55.53;22.37;;;4.30;99.90;;;;;;5091824;28;20268;-79
2021/12/07 11:42:09;;;;;;;39.90;20.37;;;4.30;99.90;;;;;;5085855;28;20717;-79
2021/12/07 11:44:56;;;;;;;45.03;20.73;;;4.30;99.90;;;;;;5068400;28;20211;-79
2021/12/07 11:47:35;;;;;;;45.60;19.83;;;4.40;99.90;;;;;;5085296;28;20280;-79
2021/12/07 11:50:22;;;;;;;40.50;19.27;;;4.40;99.90;;;;;;5080224;28;20210;-81
2021/12/07 11:52:53;;;;;;;43.30;19.53;;;4.50;99.90;;;;;;5093712;28;20278;-80
2021/12/07 11:55:22;;;;;;;37.10;18.13;;;4.50;99.90;;;;;;5090220;28;20243;-78
2021/12/07 11:57:49;;;;;;;35.53;17.43;;;4.50;99.90;;;;;;5088848;28;20210;-79
2021/12/07 12:00:28;;;;;;;35.30;17.03;;;4.50;99.90;;;;;;5086622;28;20682;-80
2021/12/07 12:02:55;;;;;;;39.03;17.10;;;4.50;99.90;;;;;;5086780;28;20213;-78
2021/12/07 12:05:22;;;;;;;35.93;15.53;;;4.60;99.90;;;;;;5087814;28;20216;-79
2021/12/07 12:07:50;;;;;;;38.03;14.90;;;4.60;99.90;;;;;;5090558;28;20664;-79
2021/12/07 12:10:18;;;;;;;29.37;14.00;;;4.70;99.90;;;;;;5089894;28;20686;-79
2021/12/07 12:13:11;;;;;;;30.53;13.97;;;4.70;99.90;;;;;;5083400;28;20289;-79
2021/12/07 12:16:18;;;;;;;25.90;13.03;;;4.80;99.90;;;;;;5070228;28;20225;-79
2021/12/07 12:19:05;;;;;;;34.67;13.10;;;4.80;99.90;;;;;;5052907;28;20222;-79
2021/12/07 12:21:47;;;;;;;28.50;12.20;;;4.90;99.90;;;;;;5089309;28;20204;-77
2021/12/07 12:24:40;;;;;;;24.63;10.70;;;4.90;99.90;;;;;;5080533;28;20247;-79
2021/12/07 12:27:08;;;;;;;25.87;10.57;;;5.00;99.90;;;;;;5089700;28;20673;-76
2021/12/07 12:29:37;;;;;;;24.87;10.60;;;5.10;99.90;;;;;;5080221;28;20303;-77
2021/12/07 12:32:06;;;;;;;28.37;10.03;;;5.10;99.90;;;;;;5062457;28;20203;-79
2021/12/07 12:34:46;;;;;;;23.13;9.33;;;5.10;99.90;;;;;;5072873;28;20590;-77
2021/12/07 12:37:17;;;;;;;19.47;9.03;;;5.10;99.90;;;;;;5086716;28;20238;-76
2021/12/07 12:39:53;;;;;;;22.10;9.03;;;5.20;99.90;;;;;;5085737;28;20195;-77
2021/12/07 12:42:36;;;;;;;20.87;8.30;;;5.20;99.90;;;;;;5086410;28;20672;-79
2021/12/07 12:45:13;;;;;;;20.33;8.90;;;5.30;99.90;;;;;;5068639;28;20291;-79
2021/12/07 12:47:42;;;;;;;22.83;10.07;;;5.30;99.90;;;;;;5071602;28;20222;-79
2021/12/07 12:50:17;;;;;;;25.43;9.33;;;5.30;99.90;;;;;;5088844;28;20267;-79
2021/12/07 12:52:53;;;;;;;18.30;8.17;;;5.30;99.90;;;;;;5090528;28;20213;-78
2021/12/07 12:55:29;;;;;;;21.67;7.77;;;5.30;99.90;;;;;;5068471;28;20710;-76
2021/12/07 12:57:55;;;;;;;25.67;7.87;;;5.40;99.90;;;;;;5042797;28;20215;-77
2021/12/07 13:00:24;;;;;;;20.90;7.40;;;5.30;99.90;;;;;;5061375;28;20216;-78
2021/12/07 13:03:09;;;;;;;22.73;7.87;;;5.40;99.90;;;;;;5068038;28;20219;-75
2021/12/07 13:05:37;;;;;;;22.10;7.87;;;5.40;99.90;;;;;;5069467;28;20224;-79
2021/12/07 13:08:16;;;;;;;19.13;7.97;;;5.40;99.90;;;;;;5068930;28;20285;-77
2021/12/07 13:11:03;;;;;;;19.07;7.70;;;5.40;99.90;;;;;;5069180;28;20252;-78
2021/12/07 13:13:36;;;;;;;16.40;7.43;;;5.40;99.90;;;;;;5069454;28;20212;-78
2021/12/07 13:16:17;;;;;;;19.80;7.37;;;5.40;99.90;;;;;;5062345;28;20288;-79
2021/12/07 13:18:46;;;;;;;18.73;8.57;;;5.40;99.90;;;;;;5069985;28;20208;-78
2021/12/07 13:21:38;;;;;;;18.93;8.07;;;5.40;99.90;;;;;;5067266;28;20289;-79
2021/12/07 13:24:20;;;;;;;14.93;7.60;;;5.40;99.90;;;;;;5068757;28;20209;-79
2021/12/07 13:26:53;;;;;;;14.87;7.27;;;5.40;99.90;;;;;;5065516;28;20211;-78
2021/12/07 13:29:25;;;;;;;19.67;7.97;;;5.40;99.90;;;;;;5077269;28;20198;-78
2021/12/07 13:31:56;;;;;;;17.97;6.97;;;5.40;99.90;;;;;;5069556;28;20303;-77
2021/12/07 13:34:35;;;;;;;26.20;8.23;;;5.40;99.90;;;;;;5069656;28;20284;-79
2021/12/07 13:37:07;;;;;;;18.43;7.83;;;5.40;99.90;;;;;;5067912;28;20780;-80
2021/12/07 13:39:44;;;;;;;22.23;6.67;;;5.40;99.90;;;;;;5068088;28;20219;-78
2021/12/07 13:42:15;;;;;;;14.47;6.53;;;5.40;99.90;;;;;;5068208;28;20277;-77
2021/12/07 13:44:52;;;;;;;19.37;6.77;;;5.40;99.90;;;;;;5068416;28;20299;-81
2021/12/07 13:47:29;;;;;;;25.73;8.57;;;5.40;99.90;;;;;;5069676;28;20217;-78
2021/12/07 13:50:00;;;;;;;28.07;7.83;;;5.40;99.90;;;;;;5060940;28;20573;-77
2021/12/07 13:52:31;;;;;;;16.30;8.07;;;5.30;99.90;;;;;;5059000;28;20648;-77
2021/12/07 13:55:00;;;;;;;19.83;8.43;;;5.40;99.90;;;;;;5077732;28;20219;-78
2021/12/07 13:57:32;;;;;;;26.73;8.33;;;5.30;99.90;;;;;;5088281;28;20802;-77
2021/12/07 14:00:08;;;;;;;21.40;6.93;;;5.30;99.90;;;;;;5088856;28;20212;-79
2021/12/07 14:02:36;;;;;;;16.17;7.70;;;5.30;99.90;;;;;;5089352;28;20279;-79
2021/12/07 14:05:14;;;;;;;26.83;8.27;;;5.30;99.90;;;;;;5086664;28;20208;-77
2021/12/07 14:07:44;;;;;;;20.17;6.97;;;5.20;99.90;;;;;;5088995;28;20355;-78
2021/12/07 14:10:28;;;;;;;10.97;6.03;;;5.30;99.90;;;;;;5087796;28;20715;-78
2021/12/07 14:12:58;;;;;;;23.33;7.93;;;5.20;99.90;;;;;;5084736;28;20306;-79
2021/12/07 14:15:37;;;;;;;16.70;6.43;;;5.10;99.90;;;;;;5083167;28;20291;-78
2021/12/07 14:18:13;;;;;;;14.87;6.77;;;5.10;99.90;;;;;;5073724;28;20597;-78
2021/12/07 14:20:42;;;;;;;12.93;6.27;;;5.10;99.90;;;;;;5063344;28;20696;-80
2021/12/07 14:23:17;;;;;;;16.63;6.43;;;5.10;99.90;;;;;;5074670;28;20200;-80
2021/12/07 14:26:08;;;;;;;15.80;6.33;;;5.10;99.90;;;;;;5092272;28;20211;-79
2021/12/07 14:28:38;;;;;;;14.13;6.47;;;5.00;99.90;;;;;;5082741;28;20310;-79
2021/12/07 14:31:20;;;;;;;21.00;7.13;;;4.90;99.90;;;;;;5066782;28;20211;-80
2021/12/07 14:33:59;;;;;;;16.97;6.53;;;4.90;99.90;;;;;;5073623;28;20218;-81
2021/12/07 14:36:31;;;;;;;14.93;5.97;;;4.90;99.90;;;;;;5088185;28;20224;-77
2021/12/07 14:39:08;;;;;;;21.67;7.77;;;4.80;99.90;;;;;;5092033;28;20206;-78
2021/12/07 14:41:45;;;;;;;18.37;6.43;;;4.80;99.90;;;;;;5089272;28;20203;-80